AirNav   Pilot Hours Calculator
 
 1393 users online  

KJRA West 30th St Heliport
New York, New York, USA

GOING TO NEW YORK?


FAA INFORMATION EFFECTIVE 01 DECEMBER 2022

Location

FAA Identifier: JRA
Lat/Long: 40-45-17.6500N 074-00-25.4150W
40-45.294167N 074-00.423583W
40.7549028,-74.0070597
(estimated)
Elevation: 7 ft. / 2 m (estimated)
Variation: 13W (1985)
From city: LCTD IN MANHATTAN.
Time zone: UTC -5 (UTC -4 during Daylight Saving Time)
Zip code: 10001

Heliport Operations

Heliport use: Open to the public
Control tower: no
ARTCC: NEW YORK CENTER
FSS: NEW YORK FLIGHT SERVICE STATION
NOTAMs facility: ISP (NOTAM-D service available)
Attendance: CONTINUOUS
Wind indicator: lighted
Segmented circle: no
Lights: SS-SR
Landing fee: yes

Heliport Communications

CTAF/UNICOM: 123.05
NEW YORK APPROACH: 127.85 126.05
NEW YORK DEPARTURE: 127.85 126.05
WX AWOS-3PT at JRB (3 nm S): 128.175 (212-425-1534)
WX ASOS at TEB (6 nm NW): PHONE 201-393-0855
WX ASOS at LGA (6 nm E): PHONE 718-672-6317
WX ASOS at EWR (8 nm SW): PHONE 973-621-2892
WX ASOS at JFK (12 nm SE): 128.725 (718-656-0956)
WX AWOS-3 at LDJ (14 nm SW): 124.025 (908-862-7383)
WX ASOS at CDW (14 nm NW): 135.5 (973-575-4417)
WX AWOS-3 at MMU (19 nm W): PHONE 973-290-0135

Nearby radio navigation aids

VOR radial/distance  VOR name  Freq  Var
TEBr167/6.2TETERBORO VOR/DME108.4011W
LGAr267/6.5LA GUARDIA VOR/DME113.1012W
CRIr340/10.0CANARSIE VOR/DME112.3011W
JFKr316/13.0KENNEDY VOR/DME115.9012W
COLr026/27.5COLTS NECK VOR/DME115.4011W
SAXr139/30.5SPARTA VORTAC115.7011W
DPKr278/32.0DEER PARK VOR/DME117.7012W
SBJr083/35.0SOLBERG VOR/DME112.9010W
CMKr223/36.9CARMEL VOR/DME116.6012W
BWZr105/37.1BROADWAY VOR/DME114.2011W
RBVr044/39.9ROBBINSVILLE VORTAC113.8010W

 
NDB name  Hdg/Dist  Freq  Var  ID
TORBY130/6.421412WTE - .
CHATHAM100/19.225413WCAT -.-. .- -

Heliport Services

Fuel available: A
Parking: tiedowns
Airframe service: NONE
Powerplant service: NONE
Bottled oxygen: NONE
Bulk oxygen: NONE

Runway Information

Helipad H1

Dimensions: 45 x 45 ft. / 14 x 14 m
Surface: asphalt, in good condition
Weight bearing capacity: 
Single wheel: 6.0
Runway edge lights: PERI
Operational restrictions: ALL HELIPADS, H1-H6 CIRCULAR.
Latitude: 40-45.262667N
Longitude: 074-00.446167W
Elevation: 7.0 ft.
Traffic pattern: rightleft
Runway end identifier lights: no

Helipad H2

Dimensions: 45 x 45 ft. / 14 x 14 m
Surface: asphalt, in good condition
Weight bearing capacity: 
Single wheel: 6.0
Latitude: 40-45.272000N
Longitude: 074-00.439500W
Elevation: 7.0 ft.
Traffic pattern: rightleft

Helipad H3

Dimensions: 45 x 45 ft. / 14 x 14 m
Surface: asphalt, in good condition
Latitude: 40-45.297167N
Longitude: 074-00.421833W
Elevation: 7.0 ft.
Traffic pattern: leftleft

Helipad H4

Dimensions: 45 x 45 ft. / 14 x 14 m
Surface: asphalt, in good condition
Latitude: 40-45.307167N
Longitude: 074-00.414167W
Elevation: 7.0 ft.
Traffic pattern: leftleft

Helipad H5

Dimensions: 45 x 45 ft. / 14 x 14 m
Surface: asphalt, in good condition
Latitude: 40-45.316500N
Longitude: 074-00.407667W
Elevation: 7.0 ft.
Traffic pattern: leftleft

Helipad H6

Dimensions: 45 x 45 ft. / 14 x 14 m
Surface: asphalt, in good condition
Latitude: 40-45.325667N
Longitude: 074-00.401000W
Elevation: 7.0 ft.
Traffic pattern: leftleft

Heliport Ownership and Management from official FAA records

Ownership: Publicly-owned
Owner: HUDSON RIVER PARK TRUST
PIER 40 WEST HOUSTON STREET
NEW YORK, NY 10007
Phone 212-627-2020
Manager: BRIAN TOLBERT
WEST 30 ST & 12 AVE.
NEW YORK, NY 10001
Phone 212-563-4442

Heliport Operational Statistics

Aircraft operations: avg 40/day *
85% air taxi
14% transient general aviation
<1% military
* for 12-month period ending 07 September 2017

Additional Remarks

FIRE ALARM BOX TO NEARBY FIREHOUSE LCTD AT FAC.
PARKING AVAILABLE.
H3 NO INGRESS/EGRESS OVER 12TH AVENUE.
ALL TKOFS & LDGS MADE ONLY OVER HUDSON RIVER.
NORTH & SOUTH FINGER PIER PADS ARE CLOSED.
+40 FT LIGHTS LOCATED AT SOUTH END OF HELIPORT.
+10 FT FENCING LOCATED ALONG EAST EDGE OF HELIPORT AND BETWEEN LANDING SPOTS 2 AND 3.
FOR CD CTC NEW YORK APCH AT 516-683-2849.

Instrument Procedures

NOTE: All procedures below are presented as PDF files. If you need a reader for these files, you should download the free Adobe Reader.

NOT FOR NAVIGATION. Please procure official charts for flight.
FAA instrument procedures published for use from 01 December 2022 at 0901Z to 29 December 2022 at 0900z.

 
IAPs - Instrument Approach Procedures
COPTER RNAV (GPS) 210   download (310KB)
NOTE: Special Take-Off Minimums/Departure Procedures apply   download (442KB)

Other nearby airports with instrument procedures:

6N5 - East 34th Street Heliport (2 nm SE)
KJRB - Downtown Manhattan/Wall Street Heliport (3 nm S)
KTEB - Teterboro Airport (6 nm NW)
KLGA - LaGuardia Airport (6 nm E)
KEWR - Newark Liberty International Airport (8 nm SW)
KJFK - John F Kennedy International Airport (12 nm SE)
KLDJ - Linden Airport (14 nm SW)
KCDW - Essex County Airport (14 nm NW)
N07 - Lincoln Park Airport (18 nm NW)
KMMU - Morristown Municipal Airport (19 nm W)
 
Loc | Ops | Rwys | IFR | FBO | Links
Com | Nav | Svcs | Stats | Notes
Area around KJRA (West 30th St Heliport)
 
Road maps at: MapQuest Bing Google
 
Aerial photo
WARNING: Photo may not be current or correct
Aerial photo of KJRA (West 30th St Heliport)
Do you have a better or more recent aerial photo of West 30th St Heliport that you would like to share? If so, please send us your photo.

 
Sectional chart

 
Airport distance calculator
Flying to West 30th St Heliport? Find the distance to fly.

From to KJRA

Sunrise and sunset
Times for 06-Dec-2022
 Local
(UTC-5)
 Zulu
(UTC)
Morning civil twilight06:3611:36
Sunrise07:0712:07
Sunset16:2721:27
Evening civil twilight16:5821:58

Current date and time
Zulu (UTC)  06-Dec-2022 15:33:04
Local (UTC-5)  06-Dec-2022 10:33:04
 
METAR
KNYC 
3nm NE 
061451Z AUTO VRB03KT 9SM BKN050 OVC065 12/09 A3033 RMK AO2 SLP262 T01220089 50002 $
KJRB 
3nm S 
061456Z AUTO 00000KT 9SM OVC050 A3032 RMK AO2 SLPNO 60001 51003 FZRANO $
KLGA 
6nm E 
061451Z VRB05KT 10SM FEW020 OVC060 12/08 A3031 RMK AO2 SLP263 T01170083 50001
KTEB 
7nm N 
061451Z 01003KT 10SM SCT050 OVC065 07/04 A3030 RMK AO2 SLP260 T00720039 51001
KEWR 
8nm SW 
061451Z 05003KT 9SM -RA FEW020 BKN050 OVC070 09/06 A3031 RMK AO2 RAB16 SLP261 P0000 60000 T00890056 50002
KJFK 
13nm SE 
061451Z 14016KT 10SM BKN050 BKN085 OVC180 14/11 A3032 RMK AO2 SLP267 T01390111 51005
KLDJ 
14nm SW 
061515Z AUTO 00000KT 7SM -RA BKN047 OVC060 08/05 A3031 RMK AO2 T00840054
KCDW 
15nm NW 
061453Z 00000KT 8SM -RA BKN049 OVC060 07/03 A3031 RMK AO2 RAB36 SLP272 P0000 60000 T00670033 50001
KMMU 
19nm W 
061447Z 00000KT 7SM BR SCT010 BKN013 BKN050 OVC055 06/06 A3032
TAF
KLGA 
6nm E 
061359Z 0614/0718 05008KT P6SM FEW020 OVC060 FM061600 14007KT P6SM VCSH OVC030 FM061900 14008G15KT 5SM -RA BR OVC015 FM070200 15008KT 5SM -RA BR OVC008 FM070800 16009KT 2SM -RA BR OVC008 FM071000 13007KT 4SM -RA BR OVC008
KTEB 
7nm N 
061239Z 0613/0718 01005KT P6SM OVC050 TEMPO 0613/0615 OVC015 FM061500 14005KT P6SM VCSH OVC030 FM061900 13005G15KT 5SM -RA BR OVC015 FM070100 14005KT 4SM -RA BR OVC008 FM070700 16006KT 2SM -RA BR OVC008 FM070900 13004KT 3SM -RA BR OVC010
KEWR 
8nm SW 
061134Z 0612/0718 02007KT P6SM SCT020 BKN045 TEMPO 0612/0614 OVC015 FM061500 13005KT P6SM VCSH OVC030 FM061900 14007G18KT 5SM -RA BR OVC015 FM070200 14007KT 4SM -RA BR OVC008 FM070700 16006KT 2SM -RA BR OVC008 FM070900 12004KT 3SM -RA BR OVC010
KJFK 
13nm SE 
061353Z 0614/0718 14010KT P6SM FEW020 BKN060 FM061600 14010KT P6SM VCSH BKN030 FM061800 14011KT 6SM -RA OVC025 FM062100 14009G17KT 5SM -RA BR OVC015 FM070300 14009KT 5SM -RA BR OVC008 FM070700 16009KT 2SM -RA BR OVC008 FM071000 13007KT 4SM -RA BR OVC008
NOTAMs
Click for the latest NOTAMs
NOTAMs are issued by the DoD/FAA and will open in a separate window not controlled by AirNav.

 

 
 

FBO, Fuel Providers, and Aircraft Ground Support

  
 Business Name 
 
 Contact 
 
 Services / Description 
 
Fuel Prices
 
Comments
  
Air Pegasus 212-563-4442
no information available

If you are affiliated with Air Pegasus and would like to show here your services, contact info, web link, logo, and more, click here
Jet A
FS $9.69 
 Updated 23-Nov-2022
 
   write
FS=Full service
Update Fuel Prices
 

Would you like to see your business listed on this page?

 If your business provides an interesting product or service to pilots, flight crews, aircraft, or users of the West 30th St Heliport, you should consider listing it here.  To start the listing process, click on the button below
 
Add a business
 

Other Pages about West 30th St Heliport

www.panynj.gov/...
 
Update a link
 
Copyright © AirNav, LLC. All rights reserved. Privacy Policy  Contact